createdAt,value
2017-05-16T00:00:52.452Z,12.90
2017-05-16T00:03:22.143Z,13.00
2017-05-16T00:05:51.780Z,13.10
2017-05-16T00:08:21.423Z,13.00
2017-05-16T00:10:57.924Z,13.10
2017-05-16T00:13:27.634Z,13.10
2017-05-16T00:15:57.515Z,13.10
2017-05-16T00:18:27.198Z,13.20
2017-05-16T00:20:56.861Z,13.20
2017-05-16T00:23:26.559Z,13.30
2017-05-16T00:25:56.228Z,13.30
2017-05-16T00:28:25.947Z,13.30
2017-05-16T00:30:55.575Z,13.40
2017-05-16T00:33:25.686Z,13.40
2017-05-16T00:35:55.359Z,13.50
2017-05-16T00:38:24.243Z,13.40
2017-05-16T00:40:53.915Z,13.60
2017-05-16T00:43:23.575Z,13.60
2017-05-16T00:45:53.274Z,13.70
2017-05-16T00:48:23.235Z,13.80
2017-05-16T00:50:53.298Z,13.80
2017-05-16T00:53:23.009Z,13.80
2017-05-16T00:55:52.675Z,13.80
2017-05-16T00:58:22.371Z,13.80
2017-05-16T01:00:52.055Z,13.90
2017-05-16T01:03:21.715Z,13.70
2017-05-16T01:05:51.361Z,13.50
2017-05-16T01:08:21.090Z,13.30
2017-05-16T01:10:50.795Z,13.00
2017-05-16T01:13:20.451Z,13.10
2017-05-16T01:15:50.150Z,13.20
2017-05-16T01:18:19.854Z,13.20
2017-05-16T01:20:49.671Z,13.10
2017-05-16T01:23:19.326Z,13.10
2017-05-16T01:25:49.009Z,13.00
2017-05-16T01:28:18.726Z,13.00
2017-05-16T01:30:48.408Z,13.00
2017-05-16T01:33:18.107Z,12.90
2017-05-16T01:35:47.848Z,12.90
2017-05-16T01:38:17.833Z,12.90
2017-05-16T01:40:47.558Z,12.90
2017-05-16T01:43:16.506Z,12.80
2017-05-16T01:45:46.315Z,12.80
2017-05-16T01:48:15.963Z,12.70
2017-05-16T01:50:45.189Z,12.60
2017-05-16T01:53:14.866Z,12.50
2017-05-16T01:55:44.543Z,12.50
2017-05-16T01:58:14.221Z,12.50
2017-05-16T02:00:43.851Z,12.40
2017-05-16T02:03:13.500Z,12.40
2017-05-16T02:05:43.348Z,12.30
2017-05-16T02:08:13.043Z,12.30
2017-05-16T02:10:42.748Z,12.40
2017-05-16T02:13:12.467Z,12.40
2017-05-16T02:15:42.161Z,12.30
2017-05-16T02:18:11.839Z,12.30
2017-05-16T02:20:41.524Z,12.30
2017-05-16T02:23:11.278Z,12.30
2017-05-16T02:25:40.966Z,12.30
2017-05-16T02:28:10.660Z,12.30
2017-05-16T02:30:40.379Z,12.30
2017-05-16T02:33:10.018Z,12.30
2017-05-16T02:35:38.907Z,12.20
2017-05-16T02:38:08.643Z,12.20
2017-05-16T02:40:38.329Z,12.20
2017-05-16T02:43:08.014Z,12.10
2017-05-16T02:45:37.702Z,12.10
2017-05-16T02:48:06.590Z,12.00
2017-05-16T02:50:36.259Z,12.00
2017-05-16T02:53:05.976Z,12.00
2017-05-16T02:55:35.644Z,11.90
2017-05-16T02:58:04.552Z,11.80
2017-05-16T03:00:34.231Z,11.80
2017-05-16T03:03:03.901Z,11.70
2017-05-16T03:05:33.631Z,11.60
2017-05-16T03:08:03.353Z,11.60
2017-05-16T03:10:33.176Z,11.50
2017-05-16T03:13:02.868Z,11.50
2017-05-16T03:15:32.538Z,11.40
2017-05-16T03:18:02.259Z,11.40
2017-05-16T03:20:31.887Z,11.40
2017-05-16T03:23:01.571Z,11.40
2017-05-16T03:25:31.298Z,11.30
2017-05-16T03:28:00.975Z,11.30
2017-05-16T03:30:30.653Z,11.20
2017-05-16T03:33:00.350Z,11.20
2017-05-16T03:35:30.003Z,11.20
2017-05-16T03:37:59.655Z,11.10
2017-05-16T03:40:29.315Z,11.10
2017-05-16T03:42:58.997Z,11.10
2017-05-16T03:45:28.668Z,11.10
2017-05-16T03:47:58.360Z,11.10
2017-05-16T03:50:28.021Z,11.10
2017-05-16T03:52:57.719Z,11.30
2017-05-16T03:55:27.687Z,11.30
2017-05-16T03:57:57.334Z,11.40
2017-05-16T04:00:27.052Z,11.40
2017-05-16T04:02:56.778Z,11.40
2017-05-16T04:05:26.652Z,11.30
2017-05-16T04:07:56.344Z,11.30
2017-05-16T04:10:26.026Z,11.40
2017-05-16T04:12:55.732Z,11.50
2017-05-16T04:15:25.438Z,11.50
2017-05-16T04:17:55.099Z,11.70
2017-05-16T04:20:24.850Z,11.80
2017-05-16T04:22:54.540Z,11.90
2017-05-16T04:25:24.223Z,11.90
2017-05-16T04:27:53.912Z,12.00
2017-05-16T04:30:23.672Z,12.00
2017-05-16T04:32:53.545Z,12.10
2017-05-16T04:35:23.341Z,12.10
2017-05-16T04:37:53.074Z,12.00
2017-05-16T04:40:22.807Z,12.00
2017-05-16T04:42:52.539Z,12.10
2017-05-16T04:45:21.732Z,12.00
2017-05-16T04:47:51.534Z,12.10
2017-05-16T04:50:21.254Z,12.20
2017-05-16T04:52:50.885Z,12.20
2017-05-16T04:55:20.698Z,12.30
2017-05-16T04:57:50.531Z,12.40
2017-05-16T05:00:20.259Z,12.40
2017-05-16T05:02:49.958Z,12.40
2017-05-16T05:05:19.647Z,12.50
2017-05-16T05:07:53.165Z,12.50
2017-05-16T05:13:01.998Z,12.70
2017-05-16T05:15:33.206Z,12.70
2017-05-16T05:19:22.554Z,12.80
2017-05-16T05:21:55.099Z,12.80
2017-05-16T05:24:24.783Z,12.90
2017-05-16T05:26:54.453Z,13.00
2017-05-16T05:29:24.366Z,13.20
2017-05-16T05:31:54.864Z,13.30
2017-05-16T05:34:24.558Z,13.30
2017-05-16T05:36:55.599Z,13.30
2017-05-16T05:39:25.304Z,13.60
2017-05-16T05:41:54.999Z,13.90
2017-05-16T05:44:24.657Z,14.20
2017-05-16T05:46:54.370Z,14.30
2017-05-16T05:49:24.064Z,14.50
2017-05-16T05:51:53.790Z,14.70
2017-05-16T05:54:23.615Z,14.80
2017-05-16T05:56:52.594Z,14.70
2017-05-16T05:59:22.320Z,15.00
2017-05-16T06:01:52.043Z,15.00
2017-05-16T06:04:21.793Z,14.90
2017-05-16T06:06:51.519Z,14.90
2017-05-16T06:09:21.453Z,14.80
2017-05-16T06:11:51.162Z,14.70
2017-05-16T06:14:20.907Z,14.60
2017-05-16T06:16:51.699Z,14.70
2017-05-16T06:19:21.429Z,14.80
2017-05-16T06:21:51.130Z,15.00
2017-05-16T06:24:20.800Z,15.20
2017-05-16T06:26:50.538Z,15.30
2017-05-16T06:29:20.234Z,15.60
2017-05-16T06:31:49.178Z,15.50
2017-05-16T06:34:18.912Z,15.70
2017-05-16T06:36:48.613Z,15.80
2017-05-16T06:39:18.302Z,15.80
2017-05-16T06:41:48.021Z,15.90
2017-05-16T06:44:17.690Z,16.00
2017-05-16T06:46:47.357Z,16.10
2017-05-16T06:49:17.127Z,16.10
2017-05-16T06:51:46.865Z,16.30
2017-05-16T06:54:31.287Z,16.30
2017-05-16T06:57:01.284Z,16.30
2017-05-16T06:59:32.129Z,16.30
2017-05-16T07:02:01.995Z,16.60
2017-05-16T07:04:31.877Z,16.70
2017-05-16T07:07:01.613Z,16.80
2017-05-16T07:09:31.319Z,17.00
2017-05-16T07:12:01.118Z,17.00
2017-05-16T07:14:31.083Z,17.10
2017-05-16T07:17:00.831Z,17.20
2017-05-16T07:19:30.552Z,17.20
2017-05-16T07:22:00.508Z,17.50
2017-05-16T07:24:30.246Z,17.60
2017-05-16T07:27:00.165Z,17.70
2017-05-16T07:29:29.382Z,17.70
2017-05-16T07:31:59.139Z,17.60
2017-05-16T07:34:28.839Z,17.70
2017-05-16T07:36:58.651Z,18.10
2017-05-16T07:39:28.573Z,18.20
2017-05-16T07:41:58.315Z,18.30
2017-05-16T07:44:28.268Z,18.30
2017-05-16T07:46:58.037Z,18.70
2017-05-16T07:49:27.880Z,18.70
2017-05-16T07:51:57.844Z,19.00
2017-05-16T07:54:27.733Z,19.20
2017-05-16T07:56:57.514Z,19.40
2017-05-16T07:59:27.236Z,19.70
2017-05-16T08:01:56.995Z,19.90
2017-05-16T08:04:26.696Z,20.20
2017-05-16T08:06:56.716Z,20.10
2017-05-16T08:09:26.752Z,19.80
2017-05-16T08:11:56.600Z,19.80
2017-05-16T08:14:26.439Z,19.80
2017-05-16T08:16:56.164Z,20.00
2017-05-16T08:19:25.911Z,20.30
2017-05-16T08:21:55.653Z,20.70
2017-05-16T08:24:25.487Z,21.20
2017-05-16T08:26:55.213Z,21.40
2017-05-16T08:29:24.999Z,21.70
2017-05-16T08:31:54.774Z,21.50
2017-05-16T08:34:26.211Z,21.50
2017-05-16T08:36:55.887Z,21.30
2017-05-16T08:39:25.635Z,21.40
2017-05-16T08:41:55.407Z,21.70
2017-05-16T08:44:25.127Z,22.60
2017-05-16T08:46:54.941Z,23.30
2017-05-16T08:49:24.684Z,23.30
2017-05-16T08:51:55.317Z,23.50
2017-05-16T08:54:25.069Z,23.20
2017-05-16T08:56:55.070Z,23.20
2017-05-16T08:59:55.255Z,22.90
2017-05-16T09:02:24.985Z,22.90
2017-05-16T09:04:54.774Z,23.10
2017-05-16T09:07:24.663Z,22.90
2017-05-16T09:10:00.298Z,23.10
2017-05-16T09:12:30.174Z,23.10
2017-05-16T09:15:01.743Z,23.10
2017-05-16T09:17:33.242Z,22.80
2017-05-16T09:20:02.313Z,22.80
2017-05-16T09:22:32.067Z,21.80
2017-05-16T09:25:01.912Z,21.90
2017-05-16T09:27:31.664Z,21.90
2017-05-16T09:30:01.609Z,21.90
2017-05-16T09:32:31.312Z,21.90
2017-05-16T09:35:02.198Z,22.90
2017-05-16T09:37:31.976Z,23.60
2017-05-16T09:40:01.737Z,24.00
2017-05-16T09:42:42.060Z,24.10
2017-05-16T09:45:12.007Z,24.50
2017-05-16T09:47:42.038Z,24.00
2017-05-16T09:50:11.840Z,23.90
2017-05-16T09:52:41.715Z,23.90
2017-05-16T09:55:11.452Z,23.70
2017-05-16T09:57:41.334Z,23.40
2017-05-16T10:00:11.071Z,23.30
2017-05-16T10:02:40.853Z,23.50
2017-05-16T10:05:10.683Z,23.50
2017-05-16T10:07:40.487Z,23.00
2017-05-16T10:10:10.329Z,22.90
2017-05-16T10:12:40.106Z,22.90
2017-05-16T10:15:09.900Z,23.20
2017-05-16T10:17:39.651Z,23.30
2017-05-16T10:20:09.539Z,23.20
2017-05-16T10:22:39.238Z,22.90
2017-05-16T10:25:09.112Z,23.40
2017-05-16T10:27:38.988Z,24.00
2017-05-16T10:30:09.322Z,24.30
2017-05-16T10:32:40.191Z,24.70
2017-05-16T10:35:10.148Z,25.00
2017-05-16T10:37:39.265Z,24.90
2017-05-16T10:40:09.043Z,25.70
2017-05-16T10:42:38.965Z,26.10
2017-05-16T10:45:08.799Z,26.20
2017-05-16T10:47:38.601Z,26.20
2017-05-16T10:50:08.385Z,26.20
2017-05-16T10:52:38.258Z,26.00
2017-05-16T10:55:08.111Z,25.90
2017-05-16T10:57:37.845Z,25.70
2017-05-16T11:00:07.670Z,26.50
2017-05-16T11:02:37.416Z,27.40
2017-05-16T11:05:07.590Z,28.60
2017-05-16T11:07:37.439Z,28.70
2017-05-16T11:10:07.554Z,28.20
2017-05-16T11:12:37.343Z,28.10
2017-05-16T11:15:08.241Z,28.10
2017-05-16T11:17:38.280Z,27.70
2017-05-16T11:20:08.449Z,27.40
2017-05-16T11:22:38.424Z,27.60
2017-05-16T11:27:24.535Z,27.50
2017-05-16T11:29:54.456Z,28.20
2017-05-16T11:32:24.557Z,27.60
2017-05-16T11:34:54.326Z,27.00
2017-05-16T11:37:24.409Z,26.50
2017-05-16T11:39:54.225Z,25.60
2017-05-16T11:42:24.054Z,25.10
2017-05-16T11:44:53.961Z,25.30
2017-05-16T11:47:23.753Z,25.50
2017-05-16T11:49:54.423Z,25.90
2017-05-16T11:52:24.351Z,26.20
2017-05-16T11:54:54.296Z,26.20
2017-05-16T11:57:24.234Z,26.30
2017-05-16T11:59:54.004Z,26.50
2017-05-16T12:02:23.895Z,26.90
2017-05-16T12:04:54.895Z,27.10
2017-05-16T12:07:24.907Z,27.20
2017-05-16T12:09:53.915Z,27.10
2017-05-16T12:12:23.695Z,26.60
2017-05-16T12:14:53.551Z,26.80
2017-05-16T12:17:23.424Z,27.20
2017-05-16T12:19:53.258Z,27.50
2017-05-16T12:22:23.072Z,27.50
2017-05-16T12:24:53.231Z,27.40
2017-05-16T12:27:23.242Z,27.50
2017-05-16T12:29:52.992Z,27.40
2017-05-16T12:32:22.786Z,27.20
2017-05-16T12:34:52.628Z,27.50
2017-05-16T12:37:22.493Z,27.90
2017-05-16T12:39:52.221Z,27.90
2017-05-16T12:42:21.998Z,28.00
2017-05-16T12:44:51.191Z,27.90
2017-05-16T12:47:21.925Z,27.70
2017-05-16T12:49:51.710Z,27.40
2017-05-16T12:52:21.503Z,27.10
2017-05-16T12:54:51.602Z,27.20
2017-05-16T12:57:21.341Z,27.10
2017-05-16T12:59:51.091Z,27.10
2017-05-16T13:02:20.820Z,27.00
2017-05-16T13:04:50.656Z,27.00
2017-05-16T13:07:20.497Z,27.00
2017-05-16T13:11:09.382Z,27.10
2017-05-16T13:13:39.476Z,26.70
2017-05-16T13:16:09.311Z,27.00
2017-05-16T13:18:39.140Z,27.10
2017-05-16T13:21:08.960Z,26.60
2017-05-16T13:23:38.758Z,26.70
2017-05-16T13:26:08.741Z,26.70
2017-05-16T13:28:38.762Z,26.60
2017-05-16T13:31:08.916Z,26.60
2017-05-16T13:33:39.597Z,26.40
2017-05-16T13:36:10.163Z,26.40
2017-05-16T13:38:39.990Z,26.50
2017-05-16T13:43:49.067Z,26.70
2017-05-16T13:46:18.995Z,26.70
2017-05-16T13:48:48.721Z,26.30
2017-05-16T13:51:18.569Z,26.40
2017-05-16T13:53:48.348Z,26.50
2017-05-16T13:56:18.272Z,26.20
2017-05-16T13:58:48.288Z,26.50
2017-05-16T14:01:19.092Z,26.60
2017-05-16T14:03:48.825Z,26.30
2017-05-16T14:06:18.641Z,26.10
2017-05-16T14:08:48.463Z,25.80
2017-05-16T14:11:18.394Z,25.70
2017-05-16T14:13:48.420Z,25.40
2017-05-16T14:16:18.230Z,25.40
2017-05-16T14:18:48.019Z,25.00
2017-05-16T14:21:18.017Z,25.10
2017-05-16T14:23:47.901Z,25.20
2017-05-16T14:26:17.830Z,25.20
2017-05-16T14:28:48.598Z,25.20
2017-05-16T14:31:20.744Z,24.90
2017-05-16T14:39:19.040Z,24.40
2017-05-16T14:41:49.530Z,24.50
2017-05-16T14:44:19.626Z,24.60
2017-05-16T14:46:49.483Z,24.70
2017-05-16T14:49:19.318Z,24.90
2017-05-16T14:51:49.499Z,25.00
2017-05-16T14:54:19.263Z,25.10
2017-05-16T14:56:49.027Z,25.10
2017-05-16T14:59:18.881Z,25.10
2017-05-16T15:01:48.706Z,25.20
2017-05-16T15:04:18.488Z,25.00
2017-05-16T15:09:27.715Z,24.90
2017-05-16T15:11:58.080Z,25.00
2017-05-16T15:14:27.915Z,25.00
2017-05-16T15:16:57.833Z,24.90
2017-05-16T15:19:27.709Z,24.90
2017-05-16T15:21:57.572Z,25.00
2017-05-16T15:24:27.975Z,25.10
2017-05-16T15:26:57.844Z,25.10
2017-05-16T15:29:27.641Z,25.00
2017-05-16T15:31:57.610Z,25.00
2017-05-16T15:34:27.574Z,25.10
2017-05-16T15:36:57.280Z,25.00
2017-05-16T15:39:27.170Z,25.00
2017-05-16T15:41:57.365Z,24.70
2017-05-16T15:44:28.256Z,24.50
2017-05-16T15:46:58.577Z,24.40
2017-05-16T15:49:29.381Z,24.50
2017-05-16T15:51:59.661Z,24.60
2017-05-16T15:54:29.541Z,24.60
2017-05-16T15:56:59.607Z,24.50
2017-05-16T15:59:30.697Z,24.40
2017-05-16T16:02:02.255Z,24.30
2017-05-16T16:04:33.179Z,24.00
2017-05-16T16:07:03.828Z,23.90
2017-05-16T16:09:34.261Z,23.80
2017-05-16T16:12:04.338Z,23.70
2017-05-16T16:14:35.627Z,23.40
2017-05-16T16:17:05.512Z,23.30
2017-05-16T16:19:35.400Z,23.00
2017-05-16T16:22:05.547Z,22.70
2017-05-16T16:24:35.446Z,22.60
2017-05-16T16:27:05.360Z,22.50
2017-05-16T16:29:35.179Z,22.50
2017-05-16T16:32:05.047Z,22.50
2017-05-16T16:34:39.866Z,22.50
2017-05-16T16:37:09.765Z,22.40
2017-05-16T16:39:39.626Z,22.40
2017-05-16T16:42:09.471Z,22.50
2017-05-16T16:44:39.247Z,22.60
2017-05-16T16:47:09.101Z,22.50
2017-05-16T16:49:39.019Z,22.50
2017-05-16T16:52:08.927Z,22.50
2017-05-16T16:54:44.998Z,22.50
2017-05-16T16:57:15.030Z,22.40
2017-05-16T16:59:44.790Z,22.40
2017-05-16T17:02:14.599Z,22.40
2017-05-16T17:04:44.327Z,22.50
2017-05-16T17:07:14.213Z,22.50
2017-05-16T17:09:44.130Z,22.60
2017-05-16T17:12:14.158Z,22.50
2017-05-16T17:14:44.831Z,22.50
2017-05-16T17:17:14.986Z,22.50
2017-05-16T17:19:45.346Z,22.50
2017-05-16T17:22:14.427Z,22.40
2017-05-16T17:24:46.498Z,22.50
2017-05-16T17:27:18.164Z,22.50
2017-05-16T17:29:48.978Z,22.50
2017-05-16T17:32:18.856Z,22.40
2017-05-16T17:34:50.743Z,22.40
2017-05-16T17:37:20.614Z,22.20
2017-05-16T17:39:50.591Z,22.10
2017-05-16T17:42:21.304Z,22.00
2017-05-16T17:44:52.804Z,21.90
2017-05-16T17:47:23.225Z,21.80
2017-05-16T17:49:54.075Z,21.80
2017-05-16T17:52:24.267Z,21.70
2017-05-16T17:54:54.826Z,21.70
2017-05-16T17:57:26.361Z,21.70
2017-05-16T17:59:57.671Z,21.70
2017-05-16T18:02:27.678Z,21.70
2017-05-16T18:04:58.822Z,21.60
2017-05-16T18:07:28.648Z,21.50
2017-05-16T18:09:58.888Z,21.40
2017-05-16T18:12:30.457Z,21.20
2017-05-16T18:15:00.598Z,21.20
2017-05-16T18:17:30.481Z,21.10
2017-05-16T18:20:03.270Z,21.10
2017-05-16T18:22:34.001Z,21.00
2017-05-16T18:25:03.815Z,20.90
2017-05-16T18:27:34.561Z,20.90
2017-05-16T18:30:04.375Z,20.80
2017-05-16T18:32:34.245Z,20.60
2017-05-16T18:35:04.866Z,20.50
2017-05-16T18:37:35.129Z,20.40
2017-05-16T18:40:04.911Z,20.40
2017-05-16T18:42:36.668Z,20.30
2017-05-16T18:45:07.216Z,20.20
2017-05-16T18:47:38.570Z,20.20
2017-05-16T18:50:09.676Z,20.20
2017-05-16T18:52:40.048Z,20.10
2017-05-16T18:55:10.137Z,20.10
2017-05-16T18:57:40.759Z,20.10
2017-05-16T19:00:10.596Z,20.10
2017-05-16T19:02:41.013Z,20.10
2017-05-16T19:05:11.652Z,20.00
2017-05-16T19:07:41.353Z,20.00
2017-05-16T19:10:11.128Z,19.90
2017-05-16T19:12:41.002Z,19.90
2017-05-16T19:15:10.916Z,19.90
2017-05-16T19:17:41.317Z,19.90
2017-05-16T19:20:14.916Z,19.90
2017-05-16T19:22:45.698Z,19.90
2017-05-16T19:25:16.283Z,19.80
2017-05-16T19:27:46.677Z,19.80
2017-05-16T19:30:16.393Z,19.90
2017-05-16T19:32:46.177Z,19.80
2017-05-16T19:35:17.066Z,19.80
2017-05-16T19:37:47.768Z,19.80
2017-05-16T19:40:19.797Z,19.70
2017-05-16T19:42:52.649Z,19.70
2017-05-16T19:45:23.265Z,19.80
2017-05-16T19:47:54.638Z,19.70
2017-05-16T19:50:26.714Z,19.70
2017-05-16T19:52:56.739Z,19.70
2017-05-16T19:55:26.753Z,19.70
2017-05-16T19:57:56.488Z,19.60
2017-05-16T20:00:27.000Z,19.50
2017-05-16T20:02:57.491Z,19.60
2017-05-16T20:05:27.254Z,19.60
2017-05-16T20:07:57.017Z,19.60
2017-05-16T20:10:26.776Z,19.50
2017-05-16T20:12:56.551Z,19.50
2017-05-16T20:15:29.059Z,19.50
2017-05-16T20:17:58.821Z,19.50
2017-05-16T20:20:28.728Z,19.50
2017-05-16T20:22:59.935Z,19.40
2017-05-16T20:25:37.116Z,19.40
2017-05-16T20:28:06.822Z,19.50
2017-05-16T20:30:38.378Z,19.50
2017-05-16T20:33:09.726Z,19.50
2017-05-16T20:35:40.285Z,19.50
2017-05-16T20:38:10.150Z,19.50
2017-05-16T20:40:40.002Z,19.50
2017-05-16T20:43:09.401Z,19.40
2017-05-16T20:45:40.951Z,19.40
2017-05-16T20:48:09.992Z,19.40
2017-05-16T20:50:39.819Z,19.40
2017-05-16T20:53:09.607Z,19.30
2017-05-16T20:55:40.140Z,19.30
2017-05-16T20:58:10.577Z,19.20
2017-05-16T21:00:40.338Z,19.20
2017-05-16T21:03:10.765Z,19.10
2017-05-16T21:05:41.007Z,19.10
2017-05-16T21:08:11.098Z,19.10
2017-05-16T21:10:40.887Z,19.10
2017-05-16T21:13:10.684Z,19.10
2017-05-16T21:15:40.720Z,19.20
2017-05-16T21:18:10.441Z,19.30
2017-05-16T21:20:41.880Z,19.30
2017-05-16T21:23:11.630Z,19.30
2017-05-16T21:25:41.462Z,19.30
2017-05-16T21:28:11.277Z,19.30
2017-05-16T21:30:42.031Z,19.20
2017-05-16T21:33:11.858Z,19.20
2017-05-16T21:35:42.261Z,19.10
2017-05-16T21:38:12.011Z,19.10
2017-05-16T21:40:41.741Z,19.00
2017-05-16T21:43:11.467Z,18.90
2017-05-16T21:45:41.223Z,18.80
2017-05-16T21:48:10.967Z,18.90
2017-05-16T21:50:40.668Z,18.80
2017-05-16T21:53:10.437Z,18.80
2017-05-16T21:55:40.508Z,18.80
2017-05-16T21:58:10.250Z,18.80
2017-05-16T22:00:40.597Z,18.80
2017-05-16T22:03:10.320Z,18.80
2017-05-16T22:05:40.040Z,18.80
2017-05-16T22:08:09.890Z,18.80
2017-05-16T22:10:39.607Z,18.70
2017-05-16T22:13:09.365Z,18.70
2017-05-16T22:15:39.128Z,18.80
2017-05-16T22:18:08.868Z,18.80
2017-05-16T22:20:39.576Z,18.70
2017-05-16T22:23:09.287Z,18.70
2017-05-16T22:25:39.151Z,18.70
2017-05-16T22:28:08.904Z,18.80
2017-05-16T22:30:38.580Z,18.80
2017-05-16T22:33:08.301Z,18.70
2017-05-16T22:35:38.083Z,18.70
2017-05-16T22:38:07.799Z,18.80
2017-05-16T22:40:37.494Z,18.80
2017-05-16T22:43:07.420Z,18.80
2017-05-16T22:45:37.134Z,18.60
2017-05-16T22:48:06.873Z,18.60
2017-05-16T22:50:36.551Z,18.60
2017-05-16T22:53:06.192Z,18.60
2017-05-16T22:55:35.872Z,18.50
2017-05-16T22:58:05.551Z,18.40
2017-05-16T23:00:35.255Z,18.40
2017-05-16T23:03:04.928Z,18.40
2017-05-16T23:05:34.627Z,18.40
2017-05-16T23:08:04.347Z,18.30
2017-05-16T23:10:34.022Z,18.30
2017-05-16T23:13:02.939Z,18.30
2017-05-16T23:15:32.667Z,18.20
2017-05-16T23:18:02.402Z,18.20
2017-05-16T23:20:32.440Z,18.20
2017-05-16T23:23:02.108Z,18.20
2017-05-16T23:25:31.104Z,18.20
2017-05-16T23:28:01.103Z,18.30
2017-05-16T23:30:32.034Z,18.20
2017-05-16T23:33:01.781Z,18.10
2017-05-16T23:35:31.473Z,18.20
2017-05-16T23:38:00.379Z,18.10
2017-05-16T23:40:30.119Z,18.10
2017-05-16T23:42:59.014Z,18.10
2017-05-16T23:45:28.748Z,18.20
2017-05-16T23:47:58.714Z,18.20
2017-05-16T23:50:28.446Z,18.20
2017-05-16T23:52:58.120Z,18.10
2017-05-16T23:55:27.823Z,18.10
2017-05-16T23:57:57.451Z,18.00
